createdAt,value
2023-03-29T05:03:07.058Z,535.00
2023-03-29T05:04:08.521Z,535.00
2023-03-29T05:05:07.188Z,534.00
2023-03-29T05:06:07.529Z,537.00
2023-03-29T05:07:07.248Z,537.00
2023-03-29T05:08:08.328Z,539.00
2023-03-29T05:09:08.320Z,536.00
2023-03-29T05:10:08.356Z,537.00
2023-03-29T05:11:08.358Z,536.00
2023-03-29T05:12:08.381Z,540.00
2023-03-29T05:13:08.471Z,539.00
2023-03-29T05:14:08.490Z,539.00
2023-03-29T05:17:07.672Z,538.00
2023-03-29T05:18:07.777Z,539.00
2023-03-29T05:19:07.803Z,536.00
2023-03-29T05:20:08.844Z,537.00
2023-03-29T05:21:08.895Z,537.00
2023-03-29T05:22:08.927Z,536.00
2023-03-29T05:23:08.960Z,539.00
2023-03-29T05:24:09.011Z,539.00
2023-03-29T05:27:08.183Z,536.00
2023-03-29T05:28:08.191Z,536.00
2023-03-29T05:29:09.211Z,535.00
2023-03-29T05:30:09.282Z,535.00
2023-03-29T05:31:09.368Z,535.00
2023-03-29T05:32:09.448Z,535.00
2023-03-29T05:33:09.407Z,536.00
2023-03-29T05:34:09.435Z,536.00
2023-03-29T05:35:09.483Z,536.00
2023-03-29T05:36:09.553Z,535.00
2023-03-29T05:39:08.623Z,538.00
2023-03-29T05:40:09.680Z,540.00
2023-03-29T05:41:09.706Z,544.00
2023-03-29T05:42:09.754Z,545.00
2023-03-29T05:46:08.975Z,542.00
2023-03-29T05:47:09.945Z,542.00
2023-03-29T05:48:08.997Z,539.00
2023-03-29T05:49:10.038Z,538.00
2023-03-29T05:50:10.061Z,539.00
2023-03-29T05:51:10.129Z,540.00
2023-03-29T05:53:09.182Z,542.00
2023-03-29T05:54:10.229Z,542.00
2023-03-29T05:55:10.269Z,544.00
2023-03-29T05:56:10.292Z,543.00
2023-03-29T05:57:10.620Z,545.00
2023-03-29T05:58:10.361Z,546.00
2023-03-29T05:59:10.389Z,547.00
2023-03-29T06:00:10.416Z,548.00
2023-03-29T06:02:09.585Z,548.00
2023-03-29T06:03:19.962Z,550.00
2023-03-29T06:04:10.607Z,552.00
2023-03-29T06:08:09.477Z,550.00
2023-03-29T06:09:09.520Z,552.00
2023-03-29T06:10:10.471Z,568.00
2023-03-29T06:11:10.572Z,575.00
2023-03-29T06:12:10.473Z,580.00
2023-03-29T06:16:09.466Z,587.00
2023-03-29T06:17:10.475Z,591.00
2023-03-29T06:18:10.568Z,596.00
2023-03-29T06:21:09.516Z,615.00
2023-03-29T06:22:09.439Z,627.00
2023-03-29T06:23:10.503Z,643.00
2023-03-29T06:24:10.469Z,651.00
2023-03-29T06:25:10.493Z,658.00
2023-03-29T06:26:10.543Z,672.00
2023-03-29T06:27:10.561Z,685.00
2023-03-29T06:28:10.561Z,698.00
2023-03-29T06:29:10.573Z,709.00
2023-03-29T06:30:10.599Z,718.00
2023-03-29T06:32:09.603Z,735.00
2023-03-29T06:33:09.709Z,742.00
2023-03-29T06:34:10.629Z,750.00
2023-03-29T06:38:09.653Z,781.00
2023-03-29T06:39:10.687Z,788.00
2023-03-29T06:40:10.682Z,796.00
2023-03-29T06:41:10.688Z,807.00
2023-03-29T06:43:09.678Z,821.00
2023-03-29T06:44:10.709Z,829.00
2023-03-29T06:46:09.735Z,847.00
2023-03-29T06:47:10.696Z,856.00
2023-03-29T06:48:10.782Z,861.00
2023-03-29T06:50:09.689Z,874.00
2023-03-29T06:51:10.678Z,883.00
2023-03-29T06:52:10.064Z,889.00
2023-03-29T06:53:10.671Z,905.00
2023-03-29T06:54:09.675Z,919.00
2023-03-29T06:55:10.697Z,927.00
2023-03-29T07:01:09.679Z,955.00
2023-03-29T07:02:10.773Z,961.00
2023-03-29T07:05:09.682Z,981.00
2023-03-29T07:06:09.687Z,992.00
2023-03-29T07:07:10.676Z,1000.00
2023-03-29T07:08:10.684Z,1007.00
2023-03-29T07:12:09.677Z,1040.00
2023-03-29T07:13:10.666Z,1061.00
2023-03-29T07:14:10.673Z,1073.00
2023-03-29T07:15:10.659Z,1082.00
2023-03-29T07:16:10.739Z,1087.00
2023-03-29T07:19:09.702Z,1106.00
2023-03-29T07:20:09.668Z,1121.00
2023-03-29T07:21:10.734Z,1131.00
2023-03-29T07:22:10.637Z,1137.00
2023-03-29T07:25:09.689Z,1157.00
2023-03-29T07:26:10.640Z,1162.00
2023-03-29T07:27:10.685Z,1170.00
2023-03-29T07:28:10.713Z,1177.00
2023-03-29T07:29:10.658Z,1184.00
2023-03-29T07:30:11.152Z,1192.00
2023-03-29T07:33:09.776Z,1219.00
2023-03-29T07:34:10.684Z,1228.00
2023-03-29T07:35:10.720Z,1240.00
2023-03-29T07:36:10.779Z,1246.00
2023-03-29T07:37:09.697Z,1251.00
2023-03-29T07:38:10.701Z,1257.00
2023-03-29T07:39:10.721Z,1266.00
2023-03-29T07:40:10.740Z,1272.00
2023-03-29T07:41:10.780Z,1277.00
2023-03-29T07:42:10.809Z,1283.00
2023-03-29T07:43:10.823Z,1288.00
2023-03-29T07:44:09.801Z,1366.00
2023-03-29T07:45:10.794Z,1352.00
2023-03-29T07:47:10.075Z,1457.00
2023-03-29T07:49:09.783Z,1457.00
2023-03-29T07:50:10.789Z,1477.00
2023-03-29T07:51:10.845Z,1541.00
2023-03-29T07:52:11.084Z,1578.00
2023-03-29T07:53:10.860Z,1584.00
2023-03-29T07:56:09.835Z,1584.00
2023-03-29T07:57:10.921Z,1646.00
2023-03-29T07:58:10.855Z,1704.00
2023-03-29T07:59:10.941Z,1782.00
2023-03-29T08:00:11.002Z,1795.00
2023-03-29T08:01:13.491Z,1766.00
2023-03-29T08:02:10.886Z,1808.00
2023-03-29T08:03:09.926Z,1812.00
2023-03-29T08:04:10.239Z,1799.00
2023-03-29T08:05:10.012Z,1813.00
2023-03-29T08:06:10.994Z,1832.00
2023-03-29T08:07:11.020Z,1855.00
2023-03-29T08:08:11.025Z,1863.00
2023-03-29T08:09:11.052Z,1873.00
2023-03-29T08:10:11.126Z,1879.00
2023-03-29T08:11:11.176Z,1917.00
2023-03-29T08:12:11.254Z,1910.00
2023-03-29T08:13:11.310Z,1929.00
2023-03-29T08:14:11.367Z,1954.00
2023-03-29T08:15:11.462Z,1962.00
2023-03-29T08:16:11.491Z,1969.00
2023-03-29T08:17:11.614Z,1998.00
2023-03-29T08:18:11.647Z,1997.00
2023-03-29T08:19:11.678Z,2026.00
2023-03-29T08:20:11.736Z,2021.00
2023-03-29T08:21:11.778Z,2024.00
2023-03-29T08:22:11.886Z,1898.00
2023-03-29T08:23:11.903Z,1510.00
2023-03-29T08:24:11.959Z,1355.00
2023-03-29T08:25:12.107Z,1245.00
2023-03-29T08:27:11.033Z,1168.00
2023-03-29T08:28:12.102Z,1193.00
2023-03-29T08:29:12.099Z,1252.00
2023-03-29T08:30:11.090Z,1453.00
2023-03-29T08:31:11.166Z,1216.00
2023-03-29T08:32:11.161Z,1034.00
2023-03-29T08:33:12.315Z,1278.00
2023-03-29T08:34:11.294Z,1281.00
2023-03-29T08:35:12.355Z,1000.00
2023-03-29T08:36:12.462Z,1053.00
2023-03-29T08:37:12.467Z,1116.00
2023-03-29T08:38:12.526Z,1172.00
2023-03-29T08:39:12.593Z,997.00
2023-03-29T08:40:12.654Z,1002.00
2023-03-29T08:41:11.687Z,896.00
2023-03-29T08:42:13.125Z,928.00
2023-03-29T08:44:11.730Z,922.00
2023-03-29T08:46:11.900Z,895.00
2023-03-29T08:47:17.858Z,891.00
2023-03-29T08:48:12.778Z,882.00
2023-03-29T08:51:11.751Z,874.00
2023-03-29T08:52:11.745Z,797.00
2023-03-29T08:53:12.742Z,818.00
2023-03-29T08:56:11.728Z,792.00
2023-03-29T08:58:12.108Z,972.00
2023-03-29T09:01:11.842Z,1145.00
2023-03-29T09:02:12.704Z,1146.00
2023-03-29T09:03:12.744Z,1193.00
2023-03-29T09:05:11.657Z,1308.00
2023-03-29T09:08:11.626Z,1338.00
2023-03-29T09:09:11.639Z,1360.00
2023-03-29T09:14:11.601Z,1442.00
2023-03-29T09:15:11.594Z,1459.00
2023-03-29T09:16:12.615Z,1483.00
2023-03-29T09:17:11.578Z,1548.00
2023-03-29T09:18:12.700Z,1573.00
2023-03-29T09:22:11.523Z,1648.00
2023-03-29T09:23:12.533Z,1644.00
2023-03-29T09:25:11.512Z,1661.00
2023-03-29T09:26:12.516Z,1683.00
2023-03-29T09:28:11.532Z,1699.00
2023-03-29T09:29:12.525Z,1719.00
2023-03-29T09:30:12.583Z,1744.00
2023-03-29T09:31:12.715Z,1773.00
2023-03-29T09:32:12.682Z,1796.00
2023-03-29T09:33:12.795Z,1822.00
2023-03-29T09:34:14.461Z,1834.00
2023-03-29T09:35:12.810Z,1841.00
2023-03-29T09:38:11.765Z,1884.00
2023-03-29T09:39:11.762Z,1880.00
2023-03-29T09:42:11.724Z,1909.00
2023-03-29T09:43:12.720Z,1942.00
2023-03-29T09:44:24.204Z,1972.00
2023-03-29T09:45:12.709Z,1962.00
2023-03-29T09:46:12.732Z,1949.00
2023-03-29T09:50:22.991Z,1909.00
2023-03-29T09:51:12.731Z,1925.00
2023-03-29T09:52:12.654Z,1914.00
2023-03-29T09:55:11.650Z,1874.00
2023-03-29T09:58:11.645Z,1815.00
2023-03-29T09:59:12.605Z,1798.00
2023-03-29T10:00:12.609Z,1784.00
2023-03-29T10:01:12.719Z,1771.00
2023-03-29T10:02:12.722Z,1758.00
2023-03-29T10:03:11.791Z,1748.00
2023-03-29T10:04:12.916Z,1738.00
2023-03-29T10:10:12.210Z,1699.00
2023-03-29T10:11:12.252Z,1691.00
2023-03-29T10:12:13.315Z,1682.00
2023-03-29T10:13:13.390Z,1675.00
2023-03-29T10:15:23.088Z,1665.00
2023-03-29T10:16:13.525Z,1657.00
2023-03-29T10:20:12.444Z,1645.00
2023-03-29T10:22:12.449Z,1639.00
2023-03-29T10:23:13.451Z,1633.00
2023-03-29T10:24:13.443Z,1629.00
2023-03-29T10:25:13.424Z,1623.00
2023-03-29T10:27:12.455Z,1617.00
2023-03-29T10:28:12.493Z,1614.00
2023-03-29T10:29:13.514Z,1609.00
2023-03-29T10:30:13.575Z,1606.00
2023-03-29T10:31:15.021Z,1605.00
2023-03-29T10:33:12.644Z,1601.00
2023-03-29T10:35:12.580Z,1591.00
2023-03-29T10:36:13.641Z,1588.00
2023-03-29T10:40:12.531Z,1583.00
2023-03-29T10:41:13.552Z,1583.00
2023-03-29T10:42:13.528Z,1588.00
2023-03-29T10:45:12.502Z,1586.00
2023-03-29T10:46:13.572Z,1585.00
2023-03-29T10:47:13.502Z,1590.00
2023-03-29T10:48:13.491Z,1590.00
2023-03-29T10:50:12.478Z,1586.00
2023-03-29T10:51:13.464Z,1580.00
2023-03-29T10:54:12.442Z,1575.00
2023-03-29T10:55:12.462Z,1574.00
2023-03-29T10:56:13.461Z,1577.00
2023-03-29T10:57:13.475Z,1576.00
2023-03-29T11:00:12.415Z,1569.00
2023-03-29T11:01:13.465Z,1570.00
2023-03-29T11:02:13.556Z,1573.00
2023-03-29T11:07:12.692Z,1577.00
2023-03-29T11:08:13.745Z,1578.00
2023-03-29T11:09:13.780Z,1577.00
2023-03-29T11:10:13.849Z,1577.00
2023-03-29T11:11:13.927Z,1576.00
2023-03-29T11:12:16.219Z,1573.00
2023-03-29T11:13:13.950Z,1576.00
2023-03-29T11:14:13.984Z,1581.00
2023-03-29T11:16:13.006Z,1578.00
2023-03-29T11:19:12.920Z,1587.00
2023-03-29T11:20:12.993Z,1586.00
2023-03-29T11:21:13.909Z,1587.00
2023-03-29T11:24:12.901Z,1586.00
2023-03-29T11:25:13.873Z,1589.00
2023-03-29T11:26:12.871Z,1594.00
2023-03-29T11:27:12.905Z,1594.00
2023-03-29T11:32:12.834Z,1635.00
2023-03-29T11:33:13.821Z,1649.00
2023-03-29T11:34:13.835Z,1653.00
2023-03-29T11:36:12.860Z,1639.00
2023-03-29T11:38:12.807Z,1642.00
2023-03-29T11:42:13.029Z,1646.00
2023-03-29T11:43:14.107Z,1643.00
2023-03-29T11:44:14.157Z,1644.00
2023-03-29T11:45:13.164Z,1644.00
2023-03-29T11:49:13.364Z,1658.00
2023-03-29T11:50:14.399Z,1662.00
2023-03-29T11:51:14.464Z,1661.00
2023-03-29T11:52:14.527Z,1659.00
2023-03-29T11:53:14.573Z,1655.00
2023-03-29T11:54:14.660Z,1656.00
2023-03-29T11:55:14.752Z,1654.00
2023-03-29T11:56:14.757Z,1653.00
2023-03-29T11:57:14.857Z,1648.00
2023-03-29T12:00:14.002Z,1639.00
2023-03-29T12:01:15.140Z,1639.00
2023-03-29T12:02:14.148Z,1636.00
2023-03-29T12:03:14.317Z,1634.00
2023-03-29T12:08:14.477Z,1620.00
2023-03-29T12:09:16.819Z,1617.00
2023-03-29T12:10:15.618Z,1611.00
2023-03-29T12:11:15.674Z,1611.00
2023-03-29T12:12:15.736Z,1609.00
2023-03-29T12:13:15.781Z,1607.00
2023-03-29T12:14:15.864Z,1608.00
2023-03-29T12:15:15.898Z,1605.00
2023-03-29T12:16:16.034Z,1603.00
2023-03-29T12:17:16.017Z,1604.00
2023-03-29T12:18:16.061Z,1608.00
2023-03-29T12:19:16.135Z,1603.00
2023-03-29T12:20:16.187Z,1598.00
2023-03-29T12:21:16.239Z,1600.00
2023-03-29T12:22:16.298Z,1598.00
2023-03-29T12:23:16.388Z,1603.00
2023-03-29T12:24:16.420Z,1599.00
2023-03-29T12:25:17.366Z,1598.00
2023-03-29T12:26:16.679Z,1600.00
2023-03-29T12:31:15.981Z,1637.00
2023-03-29T12:32:17.038Z,1634.00
2023-03-29T12:33:17.142Z,1627.00
2023-03-29T12:34:16.185Z,1627.00
2023-03-29T12:35:16.219Z,1625.00
2023-03-29T12:36:17.331Z,1626.00
2023-03-29T12:37:17.334Z,1621.00
2023-03-29T12:38:17.413Z,1617.00
2023-03-29T12:39:17.490Z,1616.00
2023-03-29T12:40:17.524Z,1616.00
2023-03-29T12:41:17.583Z,1617.00
2023-03-29T12:42:17.663Z,1613.00
2023-03-29T12:43:17.729Z,1611.00
2023-03-29T12:44:17.775Z,1607.00
2023-03-29T12:45:17.815Z,1604.00
2023-03-29T12:46:17.934Z,1601.00
2023-03-29T12:47:17.941Z,1598.00
2023-03-29T12:48:18.012Z,1599.00
2023-03-29T12:49:20.513Z,1594.00
2023-03-29T12:50:17.069Z,1587.00
2023-03-29T12:51:18.047Z,1584.00
2023-03-29T12:54:17.044Z,1570.00
2023-03-29T12:55:18.045Z,1562.00
2023-03-29T12:58:17.015Z,1534.00
2023-03-29T12:59:18.015Z,1520.00
2023-03-29T13:02:17.070Z,1482.00
2023-03-29T13:03:18.013Z,1471.00
2023-03-29T13:06:16.954Z,1441.00
2023-03-29T13:07:17.953Z,1422.00
2023-03-29T13:10:16.927Z,1381.00
2023-03-29T13:11:17.915Z,1367.00
2023-03-29T13:12:17.926Z,1358.00
2023-03-29T13:13:17.944Z,1351.00
2023-03-29T13:14:18.014Z,1342.00
2023-03-29T13:15:18.074Z,1329.00
2023-03-29T13:16:18.175Z,1322.00
2023-03-29T13:17:19.160Z,1317.00
2023-03-29T13:18:18.288Z,1308.00
2023-03-29T13:19:18.310Z,1302.00
2023-03-29T13:20:18.397Z,1286.00
2023-03-29T13:21:18.441Z,1274.00
2023-03-29T13:23:17.998Z,1248.00
2023-03-29T13:24:18.637Z,1241.00
2023-03-29T13:25:17.701Z,1231.00
2023-03-29T13:26:18.762Z,1220.00
2023-03-29T13:27:18.805Z,1210.00
2023-03-29T13:28:18.879Z,1195.00
2023-03-29T13:33:18.196Z,1130.00
2023-03-29T13:34:19.268Z,1125.00
2023-03-29T13:35:19.320Z,1118.00
2023-03-29T13:36:18.434Z,1111.00
2023-03-29T13:37:18.449Z,1101.00
2023-03-29T13:38:19.494Z,1094.00
2023-03-29T13:39:19.563Z,1085.00
2023-03-29T13:40:19.608Z,1070.00
2023-03-29T13:45:18.856Z,1028.00
2023-03-29T13:46:19.979Z,1021.00
2023-03-29T13:47:19.980Z,1013.00
2023-03-29T13:48:20.101Z,1006.00
2023-03-29T13:49:20.123Z,1000.00
2023-03-29T13:50:20.248Z,995.00
2023-03-29T13:53:19.361Z,987.00
2023-03-29T13:54:20.439Z,986.00
2023-03-29T13:55:20.484Z,983.00
2023-03-29T13:56:20.561Z,978.00
2023-03-29T13:57:20.658Z,971.00
2023-03-29T13:58:20.672Z,967.00
2023-03-29T13:59:20.745Z,959.00
2023-03-29T14:00:21.214Z,950.00
2023-03-29T14:01:20.894Z,935.00
2023-03-29T14:02:20.975Z,924.00
2023-03-29T14:03:20.994Z,921.00
2023-03-29T14:08:20.269Z,897.00
2023-03-29T14:09:21.320Z,891.00
2023-03-29T14:11:20.448Z,881.00
2023-03-29T14:12:21.494Z,873.00
2023-03-29T14:13:21.543Z,870.00
2023-03-29T14:14:21.588Z,861.00
2023-03-29T14:15:21.633Z,855.00
2023-03-29T14:16:20.737Z,851.00
2023-03-29T14:17:21.721Z,845.00
2023-03-29T14:18:21.739Z,838.00
2023-03-29T14:19:21.764Z,828.00
2023-03-29T14:20:21.762Z,820.00
2023-03-29T14:21:21.811Z,814.00
2023-03-29T14:22:21.826Z,809.00
2023-03-29T14:24:20.821Z,797.00
2023-03-29T14:25:20.843Z,789.00
2023-03-29T14:26:21.852Z,784.00
2023-03-29T14:27:21.893Z,779.00
2023-03-29T14:28:21.898Z,773.00
2023-03-29T14:29:24.373Z,768.00
2023-03-29T14:30:21.895Z,764.00
2023-03-29T14:31:21.919Z,761.00
2023-03-29T14:36:20.905Z,741.00
2023-03-29T14:37:21.862Z,735.00
2023-03-29T14:39:20.845Z,729.00
2023-03-29T14:40:21.839Z,727.00
2023-03-29T14:46:20.868Z,709.00
2023-03-29T14:51:20.753Z,695.00
2023-03-29T14:52:21.737Z,696.00
2023-03-29T14:53:21.741Z,694.00
2023-03-29T14:54:20.783Z,692.00
2023-03-29T14:55:21.738Z,687.00
2023-03-29T15:00:20.727Z,667.00
2023-03-29T15:01:21.721Z,664.00
2023-03-29T15:02:21.829Z,663.00
2023-03-29T15:03:20.742Z,659.00
2023-03-29T15:04:21.679Z,657.00
2023-03-29T15:10:20.677Z,638.00
2023-03-29T15:11:21.625Z,634.00
2023-03-29T15:12:20.612Z,630.00
2023-03-29T15:13:21.604Z,627.00
2023-03-29T15:15:20.599Z,599.00
2023-03-29T15:16:21.598Z,604.00
2023-03-29T15:21:20.574Z,617.00
2023-03-29T15:22:21.560Z,611.00
2023-03-29T15:25:20.518Z,602.00
2023-03-29T15:26:21.572Z,603.00
